« 祭りのあと 小松・福井・金沢・富山 2014/9/21 sun | トップページ | ひだエアパークスカイホリデー 飛騨農場離着陸場 2014/9/28 sun »

2014/09/23

航空祭前日2 小松飛行場 2014/9/19 fri

その1からつづき

本日は、いわて花巻でのフライトだったのに、ようやく小松航空祭前日の事前訓練の模様です。周回遅れは、御免チャイ!

RJNK 190300Z 35007KT 310V010 9999 FEW025 SCT180 BKN250 22/11 Q1014

地元招待客の前からタクシーアウトで、いよいよフライト開始です。

20140919_rjnk_23bi

20140919_rjnk_24bi

RJNK 190400Z 33007KT 290V360 9999 FEW025 SCT180 BKN250 22/10 Q1014

20140919_rjnk_25bi

20140919_rjnk_26bi

ダイヤモンドテイクオフ&ダーティターン

20140919_rjnk_27bi

会場正面通過後4番機が天候調査へ、まるでミッシングのような急上昇

20140919_rjnk_28bi

ロールオンテイクオフ

20140919_rjnk_29bi

ローアングルキューバン

20140919_rjnk_30bi

ファンブレイク

20140919_rjnk_31bi

4ポイントロール

20140919_rjnk_32bi

20140919_rjnk_33bi

チェンジオーバーターン

20140919_rjnk_34bi

20140919_rjnk_35bi

インバーテッド&コンティニュアスロール

20140919_rjnk_36bi

20140919_rjnk_37bi

レインフォール

20140919_rjnk_38bi

20140919_rjnk_39bi

20140919_rjnk_40bi

20140919_rjnk_41bi

チェンジオーバーループ

20140919_rjnk_42bi

ハーフスローロール

20140919_rjnk_43bi

20140919_rjnk_44bi

レター8

20140919_rjnk_45bi

オポジットコンティニュアスロール

20140919_rjnk_46bi

4シップインバート

20140919_rjnk_47bi

20140919_rjnk_48bi

バーティカルキューピッド

20140919_rjnk_49bi

ラインアブレストロール

20140919_rjnk_50bi

360°&ループ

20140919_rjnk_51biana

そんな中上空にANA755がアプローチ中

20140919_rjnk_52bi

20140919_rjnk_53bi

ワイドトゥーデルタループ

20140919_rjnk_54bi

デルタロール

20140919_rjnk_55bi

デルタループ

20140919_rjnk_56bi

20140919_rjnk_57bi

ボントンロール

20140919_rjnk_58bi

バーティカルキューバン8

20140919_rjnk_59bi

20140919_rjnk_60bi

20140919_rjnk_61bi

スタークロス

20140919_rjnk_62bi

タッククロスⅠ

20140919_rjnk_63bi

ローリングコンバットピッチ

20140919_rjnk_64bi

20140919_rjnk_65bi

コークスクリュー

20140919_rjnk_66bi265805

#1 76-5805 T-4 11SQ

20140919_rjnk_67bi465726

#2 46-5726 T-4 11SQ

20140919_rjnk_68bi465730

#3 46-5730 T-4 11SQ

20140919_rjnk_69bi665745

#4 66-5745 T-4 11SQ

20140919_rjnk_70bi465728

#5 46-5728 T-4 11SQ

20140919_rjnk_71bi465725

#6 46-5728 T-4 11SQ

20140919_rjnk_72bi

スポットイン 今日も素晴らしいフライトでした。ただ、曇天が・・

20140919_rjnk_73t015060

01-5060 T-400 41FTS R60

20140919_rjnk_74f15xf2

ブルーのフライトが終わって、ホッとしていると、上空を岐阜テライトが・・ 今度はF-15とF-2のようだ。

RJNK 190500Z 32007KT 300V360 9999 FEW025 BKN250 23/11 Q1013

|

« 祭りのあと 小松・福井・金沢・富山 2014/9/21 sun | トップページ | ひだエアパークスカイホリデー 飛騨農場離着陸場 2014/9/28 sun »

小松飛行場」カテゴリの記事

BI」カテゴリの記事

コメント

コメントを書く



(ウェブ上には掲載しません)


コメントは記事投稿者が公開するまで表示されません。



トラックバック


この記事へのトラックバック一覧です: 航空祭前日2 小松飛行場 2014/9/19 fri:

« 祭りのあと 小松・福井・金沢・富山 2014/9/21 sun | トップページ | ひだエアパークスカイホリデー 飛騨農場離着陸場 2014/9/28 sun »